sensor_id;sensor_type;location;lat;lon;timestamp;P1;durP1;ratioP1;P2;durP2;ratioP2
62058;SDS011;48017;51.064;7.014;2022-08-21T00:01:00;9.90;;;6.75;;
62058;SDS011;48017;51.064;7.014;2022-08-21T00:03:31;10.63;;;7.00;;
62058;SDS011;48017;51.064;7.014;2022-08-21T00:05:56;13.90;;;7.00;;
62058;SDS011;48017;51.064;7.014;2022-08-21T00:08:21;10.43;;;6.80;;
62058;SDS011;48017;51.064;7.014;2022-08-21T00:10:47;12.35;;;6.68;;
62058;SDS011;48017;51.064;7.014;2022-08-21T00:13:13;12.20;;;6.50;;
62058;SDS011;48017;51.064;7.014;2022-08-21T00:15:40;11.90;;;7.35;;
62058;SDS011;48017;51.064;7.014;2022-08-21T00:18:07;14.35;;;7.25;;
62058;SDS011;48017;51.064;7.014;2022-08-21T00:20:33;10.40;;;6.85;;
62058;SDS011;48017;51.064;7.014;2022-08-21T00:23:00;11.35;;;6.95;;
62058;SDS011;48017;51.064;7.014;2022-08-21T00:25:25;12.68;;;7.10;;
62058;SDS011;48017;51.064;7.014;2022-08-21T00:27:51;13.18;;;6.80;;
62058;SDS011;48017;51.064;7.014;2022-08-21T00:30:17;10.93;;;7.30;;
62058;SDS011;48017;51.064;7.014;2022-08-21T00:32:44;10.75;;;7.35;;
62058;SDS011;48017;51.064;7.014;2022-08-21T00:35:11;12.13;;;7.28;;
62058;SDS011;48017;51.064;7.014;2022-08-21T00:37:39;13.55;;;7.30;;
62058;SDS011;48017;51.064;7.014;2022-08-21T00:40:06;10.13;;;7.23;;
62058;SDS011;48017;51.064;7.014;2022-08-21T00:42:34;12.55;;;7.45;;
62058;SDS011;48017;51.064;7.014;2022-08-21T00:45:00;13.45;;;8.18;;
62058;SDS011;48017;51.064;7.014;2022-08-21T00:47:27;12.05;;;8.65;;
62058;SDS011;48017;51.064;7.014;2022-08-21T00:49:52;12.50;;;8.55;;
62058;SDS011;48017;51.064;7.014;2022-08-21T00:52:19;17.67;;;8.95;;
62058;SDS011;48017;51.064;7.014;2022-08-21T00:54:50;11.30;;;8.05;;
62058;SDS011;48017;51.064;7.014;2022-08-21T00:57:21;14.70;;;8.57;;
62058;SDS011;48017;51.064;7.014;2022-08-21T00:59:51;15.27;;;8.50;;
62058;SDS011;48017;51.064;7.014;2022-08-21T01:02:19;16.75;;;9.05;;
62058;SDS011;48017;51.064;7.014;2022-08-21T01:04:45;12.93;;;8.27;;
62058;SDS011;48017;51.064;7.014;2022-08-21T01:07:11;17.92;;;8.45;;
62058;SDS011;48017;51.064;7.014;2022-08-21T01:09:37;13.93;;;8.43;;
62058;SDS011;48017;51.064;7.014;2022-08-21T01:12:03;13.77;;;8.48;;
62058;SDS011;48017;51.064;7.014;2022-08-21T01:14:29;14.73;;;8.25;;
62058;SDS011;48017;51.064;7.014;2022-08-21T01:16:55;17.42;;;8.95;;
62058;SDS011;48017;51.064;7.014;2022-08-21T01:19:23;13.13;;;8.82;;
62058;SDS011;48017;51.064;7.014;2022-08-21T01:21:49;15.02;;;8.68;;
62058;SDS011;48017;51.064;7.014;2022-08-21T01:24:15;12.40;;;8.27;;
62058;SDS011;48017;51.064;7.014;2022-08-21T01:26:40;12.88;;;7.78;;
62058;SDS011;48017;51.064;7.014;2022-08-21T01:29:09;10.85;;;7.60;;
62058;SDS011;48017;51.064;7.014;2022-08-21T01:31:40;14.90;;;8.35;;
62058;SDS011;48017;51.064;7.014;2022-08-21T01:34:05;13.32;;;8.82;;
62058;SDS011;48017;51.064;7.014;2022-08-21T01:36:32;11.00;;;7.97;;
62058;SDS011;48017;51.064;7.014;2022-08-21T01:38:58;15.02;;;7.95;;
62058;SDS011;48017;51.064;7.014;2022-08-21T01:41:24;13.85;;;7.88;;
62058;SDS011;48017;51.064;7.014;2022-08-21T01:43:50;13.77;;;7.63;;
62058;SDS011;48017;51.064;7.014;2022-08-21T01:46:16;14.60;;;8.38;;
62058;SDS011;48017;51.064;7.014;2022-08-21T01:48:42;10.95;;;7.30;;
62058;SDS011;48017;51.064;7.014;2022-08-21T01:51:08;13.65;;;7.63;;
62058;SDS011;48017;51.064;7.014;2022-08-21T01:53:34;12.65;;;8.15;;
62058;SDS011;48017;51.064;7.014;2022-08-21T01:56:01;14.75;;;8.30;;
62058;SDS011;48017;51.064;7.014;2022-08-21T01:58:30;15.60;;;8.57;;
62058;SDS011;48017;51.064;7.014;2022-08-21T02:00:55;14.20;;;8.52;;
62058;SDS011;48017;51.064;7.014;2022-08-21T02:03:21;12.95;;;8.40;;
62058;SDS011;48017;51.064;7.014;2022-08-21T02:05:46;12.38;;;7.85;;
62058;SDS011;48017;51.064;7.014;2022-08-21T02:08:11;16.83;;;8.73;;
62058;SDS011;48017;51.064;7.014;2022-08-21T02:10:37;11.90;;;8.55;;
62058;SDS011;48017;51.064;7.014;2022-08-21T02:13:03;15.18;;;8.63;;
62058;SDS011;48017;51.064;7.014;2022-08-21T02:15:29;12.80;;;8.25;;
62058;SDS011;48017;51.064;7.014;2022-08-21T02:17:57;16.05;;;8.52;;
62058;SDS011;48017;51.064;7.014;2022-08-21T02:22:56;14.30;;;8.77;;
62058;SDS011;48017;51.064;7.014;2022-08-21T02:25:22;12.15;;;8.43;;
62058;SDS011;48017;51.064;7.014;2022-08-21T02:27:48;12.90;;;8.80;;
62058;SDS011;48017;51.064;7.014;2022-08-21T02:30:15;13.38;;;8.27;;
62058;SDS011;48017;51.064;7.014;2022-08-21T02:32:43;14.13;;;8.30;;
62058;SDS011;48017;51.064;7.014;2022-08-21T02:35:09;14.10;;;8.57;;
62058;SDS011;48017;51.064;7.014;2022-08-21T02:40:11;14.25;;;7.75;;
62058;SDS011;48017;51.064;7.014;2022-08-21T02:42:37;16.57;;;8.00;;
62058;SDS011;48017;51.064;7.014;2022-08-21T02:45:04;13.43;;;7.93;;
62058;SDS011;48017;51.064;7.014;2022-08-21T02:47:31;13.63;;;8.75;;
62058;SDS011;48017;51.064;7.014;2022-08-21T02:49:56;14.90;;;8.38;;
62058;SDS011;48017;51.064;7.014;2022-08-21T02:52:22;15.57;;;8.40;;
62058;SDS011;48017;51.064;7.014;2022-08-21T02:54:49;12.85;;;7.95;;
62058;SDS011;48017;51.064;7.014;2022-08-21T02:57:14;14.73;;;8.35;;
62058;SDS011;48017;51.064;7.014;2022-08-21T02:59:40;14.90;;;8.00;;
62058;SDS011;48017;51.064;7.014;2022-08-21T03:02:05;13.27;;;7.68;;
62058;SDS011;48017;51.064;7.014;2022-08-21T03:04:31;13.50;;;8.40;;
62058;SDS011;48017;51.064;7.014;2022-08-21T03:06:57;17.45;;;7.63;;
62058;SDS011;48017;51.064;7.014;2022-08-21T03:09:22;13.13;;;7.85;;
62058;SDS011;48017;51.064;7.014;2022-08-21T03:11:49;17.40;;;8.45;;
62058;SDS011;48017;51.064;7.014;2022-08-21T03:14:16;11.73;;;7.75;;
62058;SDS011;48017;51.064;7.014;2022-08-21T03:16:42;14.48;;;8.15;;
62058;SDS011;48017;51.064;7.014;2022-08-21T03:19:07;15.77;;;7.88;;
62058;SDS011;48017;51.064;7.014;2022-08-21T03:21:33;17.90;;;8.68;;
62058;SDS011;48017;51.064;7.014;2022-08-21T03:23:58;12.27;;;8.43;;
62058;SDS011;48017;51.064;7.014;2022-08-21T03:26:23;18.55;;;8.13;;
62058;SDS011;48017;51.064;7.014;2022-08-21T03:28:49;14.88;;;7.97;;
62058;SDS011;48017;51.064;7.014;2022-08-21T03:31:15;12.90;;;8.02;;
62058;SDS011;48017;51.064;7.014;2022-08-21T03:33:42;9.93;;;7.57;;
62058;SDS011;48017;51.064;7.014;2022-08-21T03:36:08;13.75;;;8.05;;
62058;SDS011;48017;51.064;7.014;2022-08-21T03:38:35;12.23;;;7.70;;
62058;SDS011;48017;51.064;7.014;2022-08-21T03:41:02;14.77;;;8.38;;
62058;SDS011;48017;51.064;7.014;2022-08-21T03:43:28;12.13;;;7.45;;
62058;SDS011;48017;51.064;7.014;2022-08-21T03:45:54;15.90;;;7.95;;
62058;SDS011;48017;51.064;7.014;2022-08-21T03:48:20;16.92;;;8.63;;
62058;SDS011;48017;51.064;7.014;2022-08-21T03:50:45;12.07;;;8.30;;
62058;SDS011;48017;51.064;7.014;2022-08-21T03:53:13;13.68;;;8.25;;
62058;SDS011;48017;51.064;7.014;2022-08-21T03:55:39;11.60;;;8.00;;
62058;SDS011;48017;51.064;7.014;2022-08-21T03:58:04;13.93;;;8.35;;
62058;SDS011;48017;51.064;7.014;2022-08-21T04:00:30;15.25;;;7.72;;
62058;SDS011;48017;51.064;7.014;2022-08-21T04:02:55;13.73;;;7.97;;
62058;SDS011;48017;51.064;7.014;2022-08-21T04:05:21;11.70;;;7.72;;
62058;SDS011;48017;51.064;7.014;2022-08-21T04:08:02;14.20;;;8.20;;
62058;SDS011;48017;51.064;7.014;2022-08-21T04:10:30;11.85;;;7.63;;
62058;SDS011;48017;51.064;7.014;2022-08-21T04:12:57;13.05;;;7.82;;
62058;SDS011;48017;51.064;7.014;2022-08-21T04:15:24;12.73;;;7.80;;
62058;SDS011;48017;51.064;7.014;2022-08-21T04:17:50;12.93;;;7.78;;
62058;SDS011;48017;51.064;7.014;2022-08-21T04:20:16;14.73;;;8.00;;
62058;SDS011;48017;51.064;7.014;2022-08-21T04:22:42;12.70;;;8.00;;
62058;SDS011;48017;51.064;7.014;2022-08-21T04:25:09;13.77;;;7.50;;
62058;SDS011;48017;51.064;7.014;2022-08-21T04:27:35;12.38;;;8.05;;
62058;SDS011;48017;51.064;7.014;2022-08-21T04:30:00;16.27;;;7.80;;
62058;SDS011;48017;51.064;7.014;2022-08-21T04:32:26;17.67;;;8.23;;
62058;SDS011;48017;51.064;7.014;2022-08-21T04:35:02;13.30;;;7.68;;
62058;SDS011;48017;51.064;7.014;2022-08-21T04:37:30;15.55;;;7.65;;
62058;SDS011;48017;51.064;7.014;2022-08-21T04:39:55;14.07;;;8.18;;
62058;SDS011;48017;51.064;7.014;2022-08-21T04:42:23;12.37;;;7.93;;
62058;SDS011;48017;51.064;7.014;2022-08-21T04:44:52;13.43;;;7.65;;
62058;SDS011;48017;51.064;7.014;2022-08-21T04:47:18;12.88;;;7.95;;
62058;SDS011;48017;51.064;7.014;2022-08-21T04:49:44;12.82;;;8.18;;
62058;SDS011;48017;51.064;7.014;2022-08-21T04:52:10;13.13;;;7.90;;
62058;SDS011;48017;51.064;7.014;2022-08-21T04:54:38;17.17;;;7.80;;
62058;SDS011;48017;51.064;7.014;2022-08-21T04:57:05;13.98;;;7.90;;
62058;SDS011;48017;51.064;7.014;2022-08-21T04:59:35;14.93;;;8.75;;
62058;SDS011;48017;51.064;7.014;2022-08-21T05:02:07;15.38;;;8.40;;
62058;SDS011;48017;51.064;7.014;2022-08-21T05:04:34;13.48;;;7.45;;
62058;SDS011;48017;51.064;7.014;2022-08-21T05:07:04;13.45;;;7.88;;
62058;SDS011;48017;51.064;7.014;2022-08-21T05:09:32;15.07;;;9.00;;
62058;SDS011;48017;51.064;7.014;2022-08-21T05:12:00;12.40;;;8.45;;
62058;SDS011;48017;51.064;7.014;2022-08-21T05:14:27;14.35;;;8.40;;
62058;SDS011;48017;51.064;7.014;2022-08-21T05:16:52;13.25;;;8.23;;
62058;SDS011;48017;51.064;7.014;2022-08-21T05:19:18;14.63;;;8.45;;
62058;SDS011;48017;51.064;7.014;2022-08-21T05:21:44;13.32;;;8.50;;
62058;SDS011;48017;51.064;7.014;2022-08-21T05:24:10;12.15;;;8.35;;
62058;SDS011;48017;51.064;7.014;2022-08-21T05:26:36;11.95;;;8.05;;
62058;SDS011;48017;51.064;7.014;2022-08-21T05:29:02;15.98;;;8.57;;
62058;SDS011;48017;51.064;7.014;2022-08-21T05:31:28;14.70;;;8.85;;
62058;SDS011;48017;51.064;7.014;2022-08-21T05:33:54;13.77;;;8.25;;
62058;SDS011;48017;51.064;7.014;2022-08-21T05:36:20;13.98;;;7.78;;
62058;SDS011;48017;51.064;7.014;2022-08-21T05:38:46;12.45;;;7.40;;
62058;SDS011;48017;51.064;7.014;2022-08-21T05:41:11;12.05;;;7.78;;
62058;SDS011;48017;51.064;7.014;2022-08-21T05:43:37;13.45;;;7.97;;
62058;SDS011;48017;51.064;7.014;2022-08-21T05:46:03;13.30;;;7.80;;
62058;SDS011;48017;51.064;7.014;2022-08-21T05:48:30;13.73;;;8.27;;
62058;SDS011;48017;51.064;7.014;2022-08-21T05:50:56;15.27;;;8.38;;
62058;SDS011;48017;51.064;7.014;2022-08-21T05:53:22;11.00;;;7.88;;
62058;SDS011;48017;51.064;7.014;2022-08-21T05:55:49;14.77;;;8.00;;
62058;SDS011;48017;51.064;7.014;2022-08-21T05:58:16;13.15;;;8.27;;
62058;SDS011;48017;51.064;7.014;2022-08-21T06:00:45;17.35;;;7.75;;
62058;SDS011;48017;51.064;7.014;2022-08-21T06:03:17;15.30;;;9.00;;
62058;SDS011;48017;51.064;7.014;2022-08-21T06:05:44;14.43;;;8.50;;
62058;SDS011;48017;51.064;7.014;2022-08-21T06:08:10;15.50;;;8.80;;
62058;SDS011;48017;51.064;7.014;2022-08-21T06:10:35;16.23;;;8.80;;
62058;SDS011;48017;51.064;7.014;2022-08-21T06:13:01;15.63;;;8.73;;
62058;SDS011;48017;51.064;7.014;2022-08-21T06:15:27;13.75;;;8.52;;
62058;SDS011;48017;51.064;7.014;2022-08-21T06:17:53;14.20;;;7.90;;
62058;SDS011;48017;51.064;7.014;2022-08-21T06:20:19;13.45;;;8.77;;
62058;SDS011;48017;51.064;7.014;2022-08-21T06:22:44;10.73;;;8.35;;
62058;SDS011;48017;51.064;7.014;2022-08-21T06:25:09;18.38;;;8.65;;
62058;SDS011;48017;51.064;7.014;2022-08-21T06:27:35;15.60;;;8.63;;
62058;SDS011;48017;51.064;7.014;2022-08-21T06:30:01;17.25;;;8.23;;
62058;SDS011;48017;51.064;7.014;2022-08-21T06:32:27;11.80;;;7.93;;
62058;SDS011;48017;51.064;7.014;2022-08-21T06:34:53;15.15;;;8.05;;
62058;SDS011;48017;51.064;7.014;2022-08-21T06:37:18;13.82;;;8.35;;
62058;SDS011;48017;51.064;7.014;2022-08-21T06:39:43;15.20;;;7.40;;
62058;SDS011;48017;51.064;7.014;2022-08-21T06:42:13;10.32;;;7.15;;
62058;SDS011;48017;51.064;7.014;2022-08-21T06:44:42;13.20;;;7.53;;
62058;SDS011;48017;51.064;7.014;2022-08-21T06:47:08;11.77;;;7.30;;
62058;SDS011;48017;51.064;7.014;2022-08-21T06:49:34;13.15;;;6.93;;
62058;SDS011;48017;51.064;7.014;2022-08-21T06:52:00;15.00;;;7.18;;
62058;SDS011;48017;51.064;7.014;2022-08-21T06:54:26;13.60;;;7.10;;
62058;SDS011;48017;51.064;7.014;2022-08-21T06:56:51;14.93;;;6.68;;
62058;SDS011;48017;51.064;7.014;2022-08-21T06:59:17;16.05;;;7.25;;
62058;SDS011;48017;51.064;7.014;2022-08-21T07:01:42;13.73;;;6.85;;
62058;SDS011;48017;51.064;7.014;2022-08-21T07:04:08;13.13;;;7.18;;
62058;SDS011;48017;51.064;7.014;2022-08-21T07:06:34;12.98;;;6.72;;
62058;SDS011;48017;51.064;7.014;2022-08-21T07:08:59;13.25;;;6.82;;
62058;SDS011;48017;51.064;7.014;2022-08-21T07:11:26;13.85;;;7.43;;
62058;SDS011;48017;51.064;7.014;2022-08-21T07:13:52;15.70;;;7.03;;
62058;SDS011;48017;51.064;7.014;2022-08-21T07:16:19;15.25;;;7.05;;
62058;SDS011;48017;51.064;7.014;2022-08-21T07:18:46;12.77;;;6.38;;
62058;SDS011;48017;51.064;7.014;2022-08-21T07:21:11;13.80;;;6.55;;
62058;SDS011;48017;51.064;7.014;2022-08-21T07:23:41;14.75;;;6.55;;
62058;SDS011;48017;51.064;7.014;2022-08-21T07:26:09;18.33;;;6.28;;
62058;SDS011;48017;51.064;7.014;2022-08-21T07:28:35;13.25;;;6.28;;
62058;SDS011;48017;51.064;7.014;2022-08-21T07:31:01;12.20;;;5.90;;
62058;SDS011;48017;51.064;7.014;2022-08-21T07:33:29;13.50;;;6.20;;
62058;SDS011;48017;51.064;7.014;2022-08-21T07:35:56;12.73;;;5.72;;
62058;SDS011;48017;51.064;7.014;2022-08-21T07:38:22;11.00;;;5.47;;
62058;SDS011;48017;51.064;7.014;2022-08-21T07:40:48;11.25;;;5.90;;
62058;SDS011;48017;51.064;7.014;2022-08-21T07:43:15;11.63;;;5.40;;
62058;SDS011;48017;51.064;7.014;2022-08-21T07:45:42;12.05;;;5.25;;
62058;SDS011;48017;51.064;7.014;2022-08-21T07:48:08;13.00;;;5.32;;
62058;SDS011;48017;51.064;7.014;2022-08-21T07:50:34;15.45;;;4.95;;
62058;SDS011;48017;51.064;7.014;2022-08-21T07:53:00;11.95;;;5.18;;
62058;SDS011;48017;51.064;7.014;2022-08-21T07:55:26;9.63;;;5.10;;
62058;SDS011;48017;51.064;7.014;2022-08-21T07:57:51;12.40;;;4.50;;
62058;SDS011;48017;51.064;7.014;2022-08-21T08:00:18;9.98;;;4.32;;
62058;SDS011;48017;51.064;7.014;2022-08-21T08:02:47;8.90;;;4.30;;
62058;SDS011;48017;51.064;7.014;2022-08-21T08:05:15;10.25;;;4.57;;
62058;SDS011;48017;51.064;7.014;2022-08-21T08:07:42;9.27;;;3.90;;
62058;SDS011;48017;51.064;7.014;2022-08-21T08:10:07;8.35;;;3.70;;
62058;SDS011;48017;51.064;7.014;2022-08-21T08:12:35;10.52;;;3.85;;
62058;SDS011;48017;51.064;7.014;2022-08-21T08:15:03;16.58;;;4.38;;
62058;SDS011;48017;51.064;7.014;2022-08-21T08:22:23;11.38;;;3.80;;
62058;SDS011;48017;51.064;7.014;2022-08-21T08:24:51;9.45;;;3.55;;
62058;SDS011;48017;51.064;7.014;2022-08-21T08:27:17;14.95;;;3.47;;
62058;SDS011;48017;51.064;7.014;2022-08-21T08:29:43;11.98;;;3.20;;
62058;SDS011;48017;51.064;7.014;2022-08-21T08:32:08;15.48;;;2.97;;
62058;SDS011;48017;51.064;7.014;2022-08-21T08:34:34;10.85;;;2.90;;
62058;SDS011;48017;51.064;7.014;2022-08-21T08:37:00;10.73;;;2.92;;
62058;SDS011;48017;51.064;7.014;2022-08-21T08:39:26;9.32;;;2.70;;
62058;SDS011;48017;51.064;7.014;2022-08-21T08:41:55;12.68;;;2.90;;
62058;SDS011;48017;51.064;7.014;2022-08-21T08:44:28;6.43;;;2.40;;
62058;SDS011;48017;51.064;7.014;2022-08-21T08:46:55;7.80;;;2.33;;
62058;SDS011;48017;51.064;7.014;2022-08-21T08:49:23;10.70;;;2.25;;
62058;SDS011;48017;51.064;7.014;2022-08-21T08:54:56;7.97;;;2.55;;
62058;SDS011;48017;51.064;7.014;2022-08-21T08:57:36;8.07;;;2.60;;
62058;SDS011;48017;51.064;7.014;2022-08-21T09:00:05;22.35;;;8.18;;
62058;SDS011;48017;51.064;7.014;2022-08-21T09:02:35;17.90;;;4.85;;
62058;SDS011;48017;51.064;7.014;2022-08-21T09:05:04;10.23;;;2.90;;
62058;SDS011;48017;51.064;7.014;2022-08-21T09:10:17;11.10;;;2.78;;
62058;SDS011;48017;51.064;7.014;2022-08-21T09:15:29;10.35;;;2.75;;
62058;SDS011;48017;51.064;7.014;2022-08-21T09:21:02;7.07;;;2.10;;
62058;SDS011;48017;51.064;7.014;2022-08-21T09:23:46;6.45;;;2.05;;
62058;SDS011;48017;51.064;7.014;2022-08-21T09:26:21;7.75;;;2.10;;
62058;SDS011;48017;51.064;7.014;2022-08-21T09:28:53;11.18;;;2.20;;
62058;SDS011;48017;51.064;7.014;2022-08-21T09:31:25;7.28;;;2.00;;
62058;SDS011;48017;51.064;7.014;2022-08-21T09:33:58;8.30;;;2.25;;
62058;SDS011;48017;51.064;7.014;2022-08-21T09:36:26;7.85;;;1.83;;
62058;SDS011;48017;51.064;7.014;2022-08-21T09:38:59;10.68;;;2.28;;
62058;SDS011;48017;51.064;7.014;2022-08-21T09:41:28;6.78;;;1.88;;
62058;SDS011;48017;51.064;7.014;2022-08-21T09:43:56;9.15;;;2.22;;
62058;SDS011;48017;51.064;7.014;2022-08-21T09:46:23;6.85;;;2.00;;
62058;SDS011;48017;51.064;7.014;2022-08-21T09:48:51;8.55;;;1.80;;
62058;SDS011;48017;51.064;7.014;2022-08-21T09:51:33;10.95;;;2.17;;
62058;SDS011;48017;51.064;7.014;2022-08-21T09:54:11;6.10;;;1.90;;
62058;SDS011;48017;51.064;7.014;2022-08-21T09:56:57;6.60;;;1.67;;
62058;SDS011;48017;51.064;7.014;2022-08-21T09:59:42;6.65;;;1.90;;
62058;SDS011;48017;51.064;7.014;2022-08-21T10:02:42;7.00;;;1.70;;
62058;SDS011;48017;51.064;7.014;2022-08-21T10:05:03;7.20;;;1.77;;
62058;SDS011;48017;51.064;7.014;2022-08-21T10:07:38;6.65;;;1.70;;
62058;SDS011;48017;51.064;7.014;2022-08-21T10:10:04;7.78;;;1.92;;
62058;SDS011;48017;51.064;7.014;2022-08-21T10:12:51;10.05;;;2.10;;
62058;SDS011;48017;51.064;7.014;2022-08-21T10:21:07;7.15;;;1.70;;
62058;SDS011;48017;51.064;7.014;2022-08-21T10:26:35;7.47;;;1.50;;
62058;SDS011;48017;51.064;7.014;2022-08-21T10:37:06;9.13;;;1.95;;
62058;SDS011;48017;51.064;7.014;2022-08-21T10:47:41;5.75;;;1.42;;
62058;SDS011;48017;51.064;7.014;2022-08-21T10:50:27;5.72;;;1.50;;
62058;SDS011;48017;51.064;7.014;2022-08-21T10:53:00;6.95;;;1.60;;
62058;SDS011;48017;51.064;7.014;2022-08-21T10:55:46;7.38;;;1.63;;
62058;SDS011;48017;51.064;7.014;2022-08-21T10:58:39;6.22;;;1.67;;
62058;SDS011;48017;51.064;7.014;2022-08-21T11:01:12;5.57;;;1.55;;
62058;SDS011;48017;51.064;7.014;2022-08-21T11:03:43;6.80;;;1.55;;
62058;SDS011;48017;51.064;7.014;2022-08-21T11:06:27;6.20;;;1.77;;
62058;SDS011;48017;51.064;7.014;2022-08-21T11:08:57;7.77;;;1.60;;
62058;SDS011;48017;51.064;7.014;2022-08-21T11:11:42;7.53;;;1.80;;
62058;SDS011;48017;51.064;7.014;2022-08-21T11:17:07;6.40;;;1.35;;
62058;SDS011;48017;51.064;7.014;2022-08-21T11:19:36;6.25;;;1.50;;
62058;SDS011;48017;51.064;7.014;2022-08-21T11:25:00;6.25;;;1.52;;
62058;SDS011;48017;51.064;7.014;2022-08-21T11:27:49;10.43;;;1.65;;
62058;SDS011;48017;51.064;7.014;2022-08-21T11:30:19;11.57;;;1.77;;
62058;SDS011;48017;51.064;7.014;2022-08-21T11:32:55;7.43;;;1.75;;
62058;SDS011;48017;51.064;7.014;2022-08-21T11:51:32;8.40;;;1.60;;
62058;SDS011;48017;51.064;7.014;2022-08-21T11:56:34;6.40;;;1.75;;
62058;SDS011;48017;51.064;7.014;2022-08-21T11:59:11;5.60;;;1.42;;
62058;SDS011;48017;51.064;7.014;2022-08-21T12:01:45;4.70;;;1.52;;
62058;SDS011;48017;51.064;7.014;2022-08-21T12:04:25;6.63;;;1.40;;
62058;SDS011;48017;51.064;7.014;2022-08-21T12:06:55;12.73;;;6.28;;
62058;SDS011;48017;51.064;7.014;2022-08-21T12:11:59;5.78;;;1.30;;
62058;SDS011;48017;51.064;7.014;2022-08-21T12:14:34;6.35;;;1.40;;
62058;SDS011;48017;51.064;7.014;2022-08-21T12:19:31;4.22;;;1.30;;
62058;SDS011;48017;51.064;7.014;2022-08-21T12:30:19;7.15;;;1.73;;
62058;SDS011;48017;51.064;7.014;2022-08-21T12:33:06;7.55;;;1.60;;
62058;SDS011;48017;51.064;7.014;2022-08-21T12:35:43;4.93;;;1.55;;
62058;SDS011;48017;51.064;7.014;2022-08-21T12:41:01;7.70;;;1.55;;
62058;SDS011;48017;51.064;7.014;2022-08-21T12:43:34;7.78;;;1.70;;
62058;SDS011;48017;51.064;7.014;2022-08-21T12:46:04;7.32;;;1.60;;
62058;SDS011;48017;51.064;7.014;2022-08-21T12:48:33;5.95;;;2.13;;
62058;SDS011;48017;51.064;7.014;2022-08-21T12:51:14;7.05;;;1.50;;
62058;SDS011;48017;51.064;7.014;2022-08-21T12:56:12;4.03;;;1.20;;
62058;SDS011;48017;51.064;7.014;2022-08-21T12:58:40;8.98;;;1.50;;
62058;SDS011;48017;51.064;7.014;2022-08-21T13:01:15;6.32;;;1.50;;
62058;SDS011;48017;51.064;7.014;2022-08-21T13:03:46;5.45;;;1.60;;
62058;SDS011;48017;51.064;7.014;2022-08-21T13:06:13;5.70;;;1.60;;
62058;SDS011;48017;51.064;7.014;2022-08-21T13:08:42;6.55;;;1.50;;
62058;SDS011;48017;51.064;7.014;2022-08-21T13:11:10;5.65;;;1.38;;
62058;SDS011;48017;51.064;7.014;2022-08-21T13:13:39;4.88;;;1.23;;
62058;SDS011;48017;51.064;7.014;2022-08-21T13:16:06;6.30;;;1.52;;
62058;SDS011;48017;51.064;7.014;2022-08-21T13:18:34;4.97;;;1.30;;
62058;SDS011;48017;51.064;7.014;2022-08-21T13:21:05;4.95;;;1.33;;
62058;SDS011;48017;51.064;7.014;2022-08-21T13:23:35;4.47;;;1.25;;
62058;SDS011;48017;51.064;7.014;2022-08-21T13:26:00;6.28;;;1.40;;
62058;SDS011;48017;51.064;7.014;2022-08-21T13:28:32;7.50;;;1.42;;
62058;SDS011;48017;51.064;7.014;2022-08-21T13:30:59;7.47;;;1.50;;
62058;SDS011;48017;51.064;7.014;2022-08-21T13:38:21;5.60;;;1.45;;
62058;SDS011;48017;51.064;7.014;2022-08-21T13:41:25;6.18;;;1.60;;
62058;SDS011;48017;51.064;7.014;2022-08-21T13:43:58;9.52;;;1.83;;
62058;SDS011;48017;51.064;7.014;2022-08-21T13:46:30;4.35;;;1.50;;
62058;SDS011;48017;51.064;7.014;2022-08-21T13:49:01;6.07;;;1.42;;
62058;SDS011;48017;51.064;7.014;2022-08-21T13:51:30;5.45;;;1.58;;
62058;SDS011;48017;51.064;7.014;2022-08-21T13:53:56;8.30;;;1.80;;
62058;SDS011;48017;51.064;7.014;2022-08-21T13:58:47;6.00;;;1.40;;
62058;SDS011;48017;51.064;7.014;2022-08-21T14:03:52;5.30;;;1.90;;
62058;SDS011;48017;51.064;7.014;2022-08-21T14:06:23;11.15;;;2.60;;
62058;SDS011;48017;51.064;7.014;2022-08-21T14:09:00;6.05;;;1.83;;
62058;SDS011;48017;51.064;7.014;2022-08-21T14:11:33;5.53;;;2.20;;
62058;SDS011;48017;51.064;7.014;2022-08-21T14:14:01;4.97;;;1.60;;
62058;SDS011;48017;51.064;7.014;2022-08-21T14:19:39;5.43;;;1.60;;
62058;SDS011;48017;51.064;7.014;2022-08-21T14:25:00;4.80;;;1.35;;
62058;SDS011;48017;51.064;7.014;2022-08-21T14:27:32;4.90;;;1.30;;
62058;SDS011;48017;51.064;7.014;2022-08-21T14:30:02;6.97;;;1.80;;
62058;SDS011;48017;51.064;7.014;2022-08-21T14:32:41;6.47;;;1.50;;
62058;SDS011;48017;51.064;7.014;2022-08-21T14:35:07;7.18;;;1.30;;
62058;SDS011;48017;51.064;7.014;2022-08-21T14:37:33;4.77;;;1.13;;
62058;SDS011;48017;51.064;7.014;2022-08-21T14:39:59;4.15;;;1.30;;
62058;SDS011;48017;51.064;7.014;2022-08-21T14:42:25;6.32;;;1.40;;
62058;SDS011;48017;51.064;7.014;2022-08-21T14:44:50;5.95;;;1.17;;
62058;SDS011;48017;51.064;7.014;2022-08-21T14:47:18;4.78;;;1.40;;
62058;SDS011;48017;51.064;7.014;2022-08-21T14:49:44;4.72;;;1.20;;
62058;SDS011;48017;51.064;7.014;2022-08-21T14:52:09;6.13;;;2.67;;
62058;SDS011;48017;51.064;7.014;2022-08-21T14:54:35;7.05;;;1.70;;
62058;SDS011;48017;51.064;7.014;2022-08-21T14:57:02;4.47;;;1.20;;
62058;SDS011;48017;51.064;7.014;2022-08-21T14:59:30;4.05;;;1.20;;
62058;SDS011;48017;51.064;7.014;2022-08-21T15:01:57;4.43;;;1.10;;
62058;SDS011;48017;51.064;7.014;2022-08-21T15:04:23;9.77;;;4.43;;
62058;SDS011;48017;51.064;7.014;2022-08-21T15:06:48;11.00;;;1.42;;
62058;SDS011;48017;51.064;7.014;2022-08-21T15:09:13;3.70;;;1.30;;
62058;SDS011;48017;51.064;7.014;2022-08-21T15:11:39;4.25;;;1.23;;
62058;SDS011;48017;51.064;7.014;2022-08-21T15:14:06;3.63;;;1.40;;
62058;SDS011;48017;51.064;7.014;2022-08-21T15:16:35;3.83;;;1.20;;
62058;SDS011;48017;51.064;7.014;2022-08-21T15:19:01;3.80;;;1.17;;
62058;SDS011;48017;51.064;7.014;2022-08-21T15:21:26;3.55;;;1.13;;
62058;SDS011;48017;51.064;7.014;2022-08-21T15:23:52;3.22;;;1.10;;
62058;SDS011;48017;51.064;7.014;2022-08-21T15:26:18;4.47;;;1.37;;
62058;SDS011;48017;51.064;7.014;2022-08-21T15:28:46;3.65;;;1.20;;
62058;SDS011;48017;51.064;7.014;2022-08-21T15:31:12;7.13;;;3.65;;
62058;SDS011;48017;51.064;7.014;2022-08-21T15:33:37;5.15;;;1.65;;
62058;SDS011;48017;51.064;7.014;2022-08-21T15:36:03;9.27;;;2.35;;
62058;SDS011;48017;51.064;7.014;2022-08-21T15:38:28;4.32;;;1.30;;
62058;SDS011;48017;51.064;7.014;2022-08-21T15:40:54;3.50;;;1.33;;
62058;SDS011;48017;51.064;7.014;2022-08-21T15:45:56;5.55;;;1.20;;
62058;SDS011;48017;51.064;7.014;2022-08-21T15:48:23;6.88;;;1.20;;
62058;SDS011;48017;51.064;7.014;2022-08-21T15:50:48;3.72;;;1.15;;
62058;SDS011;48017;51.064;7.014;2022-08-21T15:53:14;9.73;;;1.25;;
62058;SDS011;48017;51.064;7.014;2022-08-21T15:55:39;2.45;;;0.90;;
62058;SDS011;48017;51.064;7.014;2022-08-21T15:58:05;6.10;;;1.20;;
62058;SDS011;48017;51.064;7.014;2022-08-21T16:00:32;12.90;;;1.50;;
62058;SDS011;48017;51.064;7.014;2022-08-21T16:03:00;4.78;;;1.10;;
62058;SDS011;48017;51.064;7.014;2022-08-21T16:08:05;6.03;;;1.33;;
62058;SDS011;48017;51.064;7.014;2022-08-21T16:10:31;4.53;;;1.33;;
62058;SDS011;48017;51.064;7.014;2022-08-21T16:12:57;5.97;;;2.20;;
62058;SDS011;48017;51.064;7.014;2022-08-21T16:15:26;4.90;;;1.60;;
62058;SDS011;48017;51.064;7.014;2022-08-21T16:17:52;4.88;;;1.50;;
62058;SDS011;48017;51.064;7.014;2022-08-21T16:20:23;5.90;;;1.50;;
62058;SDS011;48017;51.064;7.014;2022-08-21T16:22:53;6.75;;;1.60;;
62058;SDS011;48017;51.064;7.014;2022-08-21T16:25:21;5.55;;;2.10;;
62058;SDS011;48017;51.064;7.014;2022-08-21T16:27:48;6.80;;;3.27;;
62058;SDS011;48017;51.064;7.014;2022-08-21T16:30:16;4.43;;;2.20;;
62058;SDS011;48017;51.064;7.014;2022-08-21T16:32:42;5.40;;;1.40;;
62058;SDS011;48017;51.064;7.014;2022-08-21T16:35:10;4.63;;;1.40;;
62058;SDS011;48017;51.064;7.014;2022-08-21T16:37:37;3.45;;;1.10;;